Time;durP1;ratioP1;P1;durP2;ratioP2;P2;SDS_P1;SDS_P2;PMS_P1;PMS_P2;Temp;Humidity;BMP_temperature;BMP_pressure;BME280_temperature;BME280_humidity;BME280_pressure;Samples;Min_cycle;Max_cycle;Signal;HPM_P1;HPM_P2
2022/02/13 00:02:12;;;;;;;4.07;0.75;;;26.70;95.20;;;;;;4987752;28;20042;-77
2022/02/13 00:04:39;;;;;;;1.60;0.50;;;27.00;94.30;;;;;;4980070;28;20038;-77
2022/02/13 00:07:06;;;;;;;5.85;1.08;;;27.10;94.00;;;;;;4983709;28;20477;-78
2022/02/13 00:09:34;;;;;;;5.93;0.70;;;26.80;92.70;;;;;;4984303;28;20411;-77
2022/02/13 00:12:02;;;;;;;2.38;1.00;;;26.30;94.10;;;;;;4983083;28;20034;-77
2022/02/13 00:14:30;;;;;;;1.10;0.30;;;26.10;94.70;;;;;;4981869;28;20034;-80
2022/02/13 00:16:57;;;;;;;4.53;1.13;;;25.90;94.60;;;;;;4966702;28;20030;-79
2022/02/13 00:19:24;;;;;;;4.85;0.65;;;25.70;95.20;;;;;;4979504;28;20034;-80
2022/02/13 00:21:52;;;;;;;4.72;0.80;;;25.70;95.40;;;;;;4976563;28;20029;-78
2022/02/13 00:24:20;;;;;;;6.35;1.98;;;25.70;95.20;;;;;;4978776;28;20573;-78
2022/02/13 00:26:48;;;;;;;4.38;0.90;;;25.50;94.70;;;;;;4986336;28;20021;-79
2022/02/13 00:29:15;;;;;;;4.72;0.77;;;25.40;95.20;;;;;;4985121;28;20026;-80
2022/02/13 00:31:43;;;;;;;9.07;1.20;;;25.30;94.50;;;;;;4989348;28;20030;-80
2022/02/13 00:34:10;;;;;;;4.72;0.65;;;25.30;95.50;;;;;;4980031;28;20023;-79
2022/02/13 00:36:37;;;;;;;5.20;0.70;;;25.50;95.00;;;;;;4987754;28;20432;-80
2022/02/13 00:39:06;;;;;;;3.95;1.05;;;25.70;94.70;;;;;;4983140;28;20113;-80
2022/02/13 00:41:34;;;;;;;8.48;1.88;;;25.70;94.90;;;;;;4984378;28;20101;-80
2022/02/13 00:44:01;;;;;;;3.33;0.90;;;25.70;95.10;;;;;;4984482;28;20034;-81
2022/02/13 00:46:29;;;;;;;3.58;0.65;;;25.60;95.10;;;;;;4982024;28;20058;-79
2022/02/13 00:48:59;;;;;;;3.88;0.68;;;25.40;94.30;;;;;;4989056;28;20045;-80
2022/02/13 00:51:27;;;;;;;2.97;0.70;;;25.20;95.10;;;;;;4981597;28;20050;-78
2022/02/13 00:53:54;;;;;;;5.80;0.70;;;25.20;95.40;;;;;;4986940;28;20440;-79
2022/02/13 00:56:22;;;;;;;7.85;0.88;;;25.20;95.40;;;;;;4982775;28;20030;-78
2022/02/13 00:58:49;;;;;;;9.23;0.88;;;25.40;95.30;;;;;;4977434;28;20206;-79
2022/02/13 01:01:16;;;;;;;5.22;0.60;;;25.40;94.70;;;;;;4982560;28;20085;-78
2022/02/13 01:03:44;;;;;;;4.78;1.15;;;25.40;94.90;;;;;;4975782;28;20493;-79
2022/02/13 01:06:11;;;;;;;5.00;1.05;;;25.20;94.90;;;;;;4989422;28;20044;-78
2022/02/13 01:08:40;;;;;;;2.88;1.35;;;25.10;95.50;;;;;;4985256;28;20129;-77
2022/02/13 01:11:08;;;;;;;5.13;0.70;;;25.00;95.50;;;;;;4984863;28;20485;-77
2022/02/13 01:13:35;;;;;;;3.20;0.47;;;24.80;96.30;;;;;;4986448;28;20089;-78
2022/02/13 01:16:04;;;;;;;6.40;1.73;;;24.70;96.50;;;;;;4992118;28;20105;-79
2022/02/13 01:18:31;;;;;;;3.80;1.25;;;24.50;97.50;;;;;;4976165;28;20019;-79
2022/02/13 01:20:59;;;;;;;5.63;0.70;;;24.30;98.10;;;;;;4986067;28;20042;-80
2022/02/13 01:23:26;;;;;;;5.40;0.93;;;24.30;98.70;;;;;;4981869;28;20100;-79
2022/02/13 01:25:53;;;;;;;6.07;0.73;;;24.20;98.20;;;;;;4993336;28;20027;-81
2022/02/13 01:28:21;;;;;;;5.47;0.70;;;24.40;97.70;;;;;;4985005;28;20096;-82
2022/02/13 01:30:48;;;;;;;4.40;0.50;;;24.50;97.70;;;;;;4982217;28;20159;-82
2022/02/13 01:33:16;;;;;;;1.83;0.52;;;24.50;98.00;;;;;;4979000;28;20508;-77
2022/02/13 01:35:43;;;;;;;3.08;0.90;;;25.00;97.90;;;;;;4980501;28;20110;-79
2022/02/13 01:38:10;;;;;;;3.78;0.43;;;25.60;96.90;;;;;;4978521;28;20059;-80
2022/02/13 01:40:38;;;;;;;2.63;0.70;;;26.00;96.70;;;;;;4987083;28;20034;-82
2022/02/13 01:43:05;;;;;;;2.85;0.50;;;26.50;95.80;;;;;;4986172;28;20031;-78
2022/02/13 01:45:32;;;;;;;5.55;1.08;;;26.90;96.00;;;;;;4982662;28;20110;-84
2022/02/13 01:48:00;;;;;;;4.32;1.45;;;27.20;94.20;;;;;;4984031;28;20054;-78
2022/02/13 01:50:27;;;;;;;10.00;0.90;;;27.30;93.50;;;;;;4992274;28;20081;-77
2022/02/13 01:52:55;;;;;;;2.33;0.40;;;27.20;93.70;;;;;;4988995;28;20068;-77
2022/02/13 01:55:23;;;;;;;2.55;0.77;;;27.20;92.80;;;;;;4982655;28;20034;-79
2022/02/13 01:57:51;;;;;;;3.45;0.50;;;27.20;92.30;;;;;;4980150;28;20061;-77
2022/02/13 02:00:18;;;;;;;5.03;1.48;;;27.30;92.60;;;;;;4989344;28;20023;-79
2022/02/13 02:02:45;;;;;;;3.97;0.90;;;27.40;92.10;;;;;;4986643;28;20422;-78
2022/02/13 02:05:13;;;;;;;4.88;3.17;;;27.50;92.00;;;;;;4979956;28;20131;-80
2022/02/13 02:07:40;;;;;;;7.70;3.03;;;27.40;91.70;;;;;;4986447;28;20029;-77
2022/02/13 02:10:07;;;;;;;7.80;1.73;;;27.50;91.90;;;;;;4989230;28;20034;-79
2022/02/13 02:12:39;;;;;;;3.10;0.88;;;27.60;92.00;;;;;;4985652;28;20026;-80
2022/02/13 02:15:07;;;;;;;7.30;0.93;;;27.80;92.40;;;;;;4991337;28;20034;-79
2022/02/13 02:17:34;;;;;;;4.43;0.80;;;27.80;92.60;;;;;;4985760;28;20026;-78
2022/02/13 02:20:02;;;;;;;2.25;0.70;;;27.80;92.30;;;;;;4989953;28;20062;-77
2022/02/13 02:22:30;;;;;;;4.22;0.95;;;27.90;92.20;;;;;;4984857;28;20025;-80
2022/02/13 02:24:57;;;;;;;4.28;0.70;;;28.30;92.40;;;;;;4985414;28;20042;-79
2022/02/13 02:27:27;;;;;;;3.20;0.50;;;28.90;92.40;;;;;;4985023;28;20034;-77
2022/02/13 02:29:54;;;;;;;2.63;0.95;;;28.50;91.80;;;;;;4981528;28;20081;-77
2022/02/13 02:32:22;;;;;;;3.38;0.50;;;27.90;91.40;;;;;;4988293;28;20018;-76
2022/02/13 02:34:50;;;;;;;2.95;0.68;;;27.70;91.20;;;;;;4970637;28;20034;-75
2022/02/13 02:37:17;;;;;;;2.10;0.52;;;28.30;91.20;;;;;;4985751;28;20485;-76
2022/02/13 02:39:44;;;;;;;5.60;0.88;;;29.00;91.40;;;;;;4984385;28;20146;-76
2022/02/13 02:42:13;;;;;;;4.03;0.82;;;29.40;90.40;;;;;;4990816;28;20473;-76
2022/02/13 02:44:41;;;;;;;2.40;0.60;;;28.70;89.80;;;;;;4983656;28;20058;-78
2022/02/13 02:47:08;;;;;;;3.13;0.68;;;28.50;89.90;;;;;;4983108;28;20457;-76
2022/02/13 02:49:36;;;;;;;6.32;0.70;;;29.00;89.80;;;;;;4986871;28;20050;-79
2022/02/13 02:52:03;;;;;;;2.95;1.17;;;29.40;90.50;;;;;;4989839;28;20073;-77
2022/02/13 02:54:31;;;;;;;2.05;0.93;;;29.90;91.10;;;;;;4982498;28;20042;-75
2022/02/13 02:56:58;;;;;;;4.78;0.80;;;30.50;87.50;;;;;;4974880;28;20030;-79
2022/02/13 02:59:25;;;;;;;6.60;0.82;;;30.60;85.10;;;;;;4980866;28;20339;-77
2022/02/13 03:01:53;;;;;;;5.97;1.08;;;30.40;86.80;;;;;;4987041;28;20053;-82
2022/02/13 03:04:20;;;;;;;3.13;0.43;;;30.50;87.20;;;;;;4988145;28;20064;-80
2022/02/13 03:06:47;;;;;;;3.45;0.50;;;30.80;86.60;;;;;;4984587;28;20030;-80
2022/02/13 03:09:14;;;;;;;3.85;1.35;;;30.90;86.50;;;;;;4982649;28;20149;-81
2022/02/13 03:11:42;;;;;;;5.00;0.50;;;30.70;85.70;;;;;;4982639;28;20493;-82
2022/02/13 03:14:10;;;;;;;2.35;0.50;;;30.60;86.40;;;;;;4989929;28;20559;-85
2022/02/13 03:16:37;;;;;;;2.92;0.40;;;30.80;86.60;;;;;;4974512;28;20473;-83
2022/02/13 03:19:04;;;;;;;3.92;0.40;;;31.10;85.20;;;;;;4988811;28;20390;-80
2022/02/13 03:21:32;;;;;;;4.85;0.82;;;30.40;85.40;;;;;;4990482;28;20018;-80
2022/02/13 03:23:59;;;;;;;5.28;0.90;;;29.60;86.50;;;;;;4994467;28;20062;-83
2022/02/13 03:26:28;;;;;;;5.55;0.60;;;29.00;88.20;;;;;;4996651;28;20050;-81
2022/02/13 03:28:56;;;;;;;3.17;1.23;;;28.50;88.80;;;;;;4984608;28;20033;-81
2022/02/13 03:31:23;;;;;;;2.13;0.60;;;28.20;89.50;;;;;;4980602;28;20026;-82
2022/02/13 03:33:50;;;;;;;5.07;0.60;;;28.30;90.10;;;;;;4984527;28;20109;-80
2022/02/13 03:36:19;;;;;;;3.03;0.50;;;28.30;90.30;;;;;;4980707;28;20106;-80
2022/02/13 03:38:46;;;;;;;3.83;0.75;;;28.50;89.90;;;;;;4985151;28;20069;-82
2022/02/13 03:41:14;;;;;;;3.40;0.40;;;28.50;88.60;;;;;;4984707;28;20033;-82
2022/02/13 03:43:41;;;;;;;2.95;0.75;;;29.20;90.60;;;;;;4982451;28;20042;-80
2022/02/13 03:46:09;;;;;;;5.65;0.80;;;30.10;88.40;;;;;;4988261;28;20046;-83
2022/02/13 03:49:12;;;;;;;3.22;0.40;;;30.10;88.00;;;;;;4981146;28;20037;-83
2022/02/13 03:51:31;;;;;;;;;;;29.90;87.70;;;;;;4980825;28;20057;-81
2022/02/13 03:53:59;;;;;;;11.23;1.15;;;29.40;86.90;;;;;;4985907;28;19953;-83
2022/02/13 03:56:26;;;;;;;5.65;1.17;;;29.10;87.70;;;;;;4980450;28;20429;-81
2022/02/13 03:58:54;;;;;;;3.90;0.50;;;28.80;87.70;;;;;;4986438;28;20125;-82
2022/02/13 04:01:22;;;;;;;3.00;0.88;;;28.60;87.60;;;;;;4986602;28;20057;-82
2022/02/13 04:03:49;;;;;;;3.08;0.50;;;28.40;87.30;;;;;;4984263;28;20038;-82
2022/02/13 04:06:17;;;;;;;2.88;0.70;;;28.40;87.10;;;;;;4983589;28;20037;-81
2022/02/13 04:08:44;;;;;;;3.65;0.50;;;28.30;86.80;;;;;;4978649;28;23136;-80
2022/02/13 04:11:11;;;;;;;3.67;0.50;;;28.30;87.20;;;;;;4978328;28;20101;-80
2022/02/13 04:13:40;;;;;;;2.63;0.52;;;28.10;87.50;;;;;;4982800;28;20384;-80
2022/02/13 04:16:08;;;;;;;3.28;0.32;;;28.10;87.40;;;;;;4976693;28;20046;-81
2022/02/13 04:18:36;;;;;;;5.30;0.63;;;28.10;87.00;;;;;;4981638;28;20430;-80
2022/02/13 04:21:03;;;;;;;3.15;0.43;;;28.10;86.80;;;;;;4978897;28;20041;-81
2022/02/13 04:23:32;;;;;;;4.05;0.70;;;28.10;86.20;;;;;;4980192;28;20102;-78
2022/02/13 04:26:00;;;;;;;4.85;0.50;;;28.20;86.70;;;;;;4985157;28;20049;-80
2022/02/13 04:28:29;;;;;;;4.32;0.60;;;28.10;87.30;;;;;;4981144;28;20022;-78
2022/02/13 04:30:56;;;;;;;4.85;0.93;;;27.90;88.70;;;;;;4977340;28;20113;-78
2022/02/13 04:33:23;;;;;;;4.05;1.27;;;27.70;89.90;;;;;;4977087;28;20166;-78
2022/02/13 04:35:51;;;;;;;3.75;0.52;;;27.40;90.50;;;;;;4982406;28;20092;-79
2022/02/13 04:38:19;;;;;;;4.95;0.50;;;27.20;90.80;;;;;;4978796;28;20022;-77
2022/02/13 04:40:47;;;;;;;4.72;0.85;;;27.00;91.20;;;;;;4989379;28;20034;-80
2022/02/13 04:43:14;;;;;;;4.35;0.68;;;26.90;91.40;;;;;;4968095;28;20081;-76
2022/02/13 04:45:41;;;;;;;3.33;0.73;;;26.80;91.10;;;;;;4982382;28;20089;-77
2022/02/13 04:48:09;;;;;;;4.47;0.60;;;26.60;91.10;;;;;;4978430;28;20184;-78
2022/02/13 04:50:36;;;;;;;2.50;0.45;;;26.40;91.30;;;;;;4989904;28;20477;-80
2022/02/13 04:53:03;;;;;;;1.85;0.70;;;26.40;91.40;;;;;;4976765;28;20033;-78
2022/02/13 04:55:31;;;;;;;2.53;0.60;;;26.30;91.30;;;;;;4982162;28;20051;-77
2022/02/13 04:57:58;;;;;;;4.45;0.85;;;26.30;91.10;;;;;;4983005;28;20434;-79
2022/02/13 05:00:26;;;;;;;3.40;0.55;;;26.40;91.10;;;;;;4976415;28;20393;-79
2022/02/13 05:02:53;;;;;;;3.47;0.60;;;26.40;91.20;;;;;;4981027;28;20034;-79
2022/02/13 05:05:21;;;;;;;1.05;0.50;;;26.50;90.90;;;;;;4983373;28;20039;-76
2022/02/13 05:07:49;;;;;;;2.75;0.50;;;26.70;90.80;;;;;;4979571;28;20019;-73
2022/02/13 05:10:16;;;;;;;4.30;0.52;;;26.70;90.60;;;;;;4964816;28;20069;-74
2022/02/13 05:12:44;;;;;;;1.10;0.35;;;26.70;90.50;;;;;;4964267;28;20391;-75
2022/02/13 05:15:11;;;;;;;5.65;1.10;;;26.70;90.60;;;;;;4980973;28;20049;-76
2022/02/13 05:17:38;;;;;;;6.18;1.15;;;26.60;90.10;;;;;;4976087;28;20026;-77
2022/02/13 05:20:07;;;;;;;4.28;0.73;;;26.40;90.20;;;;;;4982295;28;20485;-77
2022/02/13 05:22:34;;;;;;;3.95;0.77;;;26.20;90.40;;;;;;4986749;28;20454;-77
2022/02/13 05:25:02;;;;;;;8.13;0.80;;;26.20;90.70;;;;;;4988240;28;20113;-72
2022/02/13 05:27:29;;;;;;;4.50;0.75;;;26.30;90.90;;;;;;4986681;28;20077;-74
2022/02/13 05:29:56;;;;;;;4.75;0.40;;;26.50;90.50;;;;;;4978496;28;20085;-75
2022/02/13 05:32:23;;;;;;;3.58;0.65;;;26.60;90.50;;;;;;4990878;28;20030;-76
2022/02/13 05:34:51;;;;;;;4.93;0.50;;;26.70;90.70;;;;;;4984216;28;20026;-75
2022/02/13 05:37:18;;;;;;;4.45;0.85;;;26.70;90.80;;;;;;4985000;28;20031;-76
2022/02/13 05:39:46;;;;;;;7.80;0.90;;;26.70;90.40;;;;;;4985634;28;20049;-76
2022/02/13 05:42:13;;;;;;;5.32;0.50;;;26.70;90.60;;;;;;4991934;28;20457;-73
2022/02/13 05:44:40;;;;;;;1.75;0.50;;;26.60;90.20;;;;;;4960084;28;20509;-75
2022/02/13 05:47:08;;;;;;;3.05;0.63;;;26.70;90.60;;;;;;4982254;28;20081;-75
2022/02/13 05:49:35;;;;;;;3.25;0.70;;;26.70;90.90;;;;;;4985744;28;20069;-74
2022/02/13 05:52:03;;;;;;;2.70;0.57;;;26.50;90.30;;;;;;4986811;28;20022;-73
2022/02/13 05:54:31;;;;;;;3.63;0.80;;;26.40;90.50;;;;;;4986396;28;20057;-74
2022/02/13 05:56:58;;;;;;;3.25;0.70;;;26.40;91.10;;;;;;4978178;28;20026;-74
2022/02/13 05:59:26;;;;;;;2.60;0.50;;;26.70;91.10;;;;;;4979887;28;20111;-74
2022/02/13 06:01:53;;;;;;;3.17;0.68;;;27.20;90.80;;;;;;4981867;28;20034;-74
2022/02/13 06:04:21;;;;;;;1.77;0.35;;;27.60;90.40;;;;;;4988374;28;20159;-74
2022/02/13 06:06:50;;;;;;;5.50;0.60;;;27.50;90.70;;;;;;4991272;28;20023;-75
2022/02/13 06:09:19;;;;;;;10.30;1.13;;;27.20;90.60;;;;;;4986312;28;20048;-74
2022/02/13 06:11:47;;;;;;;3.83;0.63;;;27.00;91.00;;;;;;4988723;28;20469;-74
2022/02/13 06:20:58;;;;;;;6.28;1.50;;;26.80;91.00;;;;;;4977009;28;20041;-73
2022/02/13 06:23:25;;;;;;;6.15;0.88;;;26.50;91.10;;;;;;4986197;28;20046;-75
2022/02/13 06:25:53;;;;;;;4.78;1.20;;;26.20;91.60;;;;;;4984433;28;20034;-74
2022/02/13 06:28:21;;;;;;;8.35;0.80;;;26.20;92.10;;;;;;4988880;28;20106;-75
2022/02/13 06:30:48;;;;;;;8.27;1.42;;;26.40;92.00;;;;;;4985065;28;20046;-75
2022/02/13 06:33:16;;;;;;;8.23;0.90;;;26.60;92.10;;;;;;4981462;28;20033;-74
2022/02/13 06:35:43;;;;;;;3.08;0.52;;;26.70;91.80;;;;;;4986639;28;20049;-76
2022/02/13 06:38:16;;;;;;;5.35;0.52;;;26.90;91.70;;;;;;4980676;28;20050;-74
2022/02/13 06:40:44;;;;;;;5.53;1.15;;;27.20;91.50;;;;;;4990439;28;20049;-74
2022/02/13 06:43:11;;;;;;;6.43;0.70;;;27.10;91.30;;;;;;4990304;28;20089;-73
2022/02/13 06:45:41;;;;;;;5.35;1.35;;;26.90;91.70;;;;;;4983998;28;20109;-74
2022/02/13 06:48:09;;;;;;;5.55;1.35;;;26.70;91.90;;;;;;4983794;28;20039;-75
2022/02/13 06:50:37;;;;;;;6.70;0.93;;;26.60;92.00;;;;;;4979092;28;20482;-75
2022/02/13 06:53:05;;;;;;;5.60;1.30;;;26.50;91.40;;;;;;4989368;28;20034;-76
2022/02/13 06:55:33;;;;;;;2.95;0.57;;;26.10;92.10;;;;;;4989935;28;20077;-76
2022/02/13 06:58:00;;;;;;;7.80;0.88;;;25.70;92.60;;;;;;4982212;28;20429;-75
2022/02/13 07:00:27;;;;;;;2.70;1.15;;;25.70;92.40;;;;;;4989617;28;20034;-75
2022/02/13 07:02:55;;;;;;;4.80;0.80;;;25.40;92.60;;;;;;4983644;28;20046;-73
2022/02/13 07:05:26;;;;;;;4.22;0.52;;;25.30;92.30;;;;;;4990476;28;20464;-74
2022/02/13 07:07:54;;;;;;;12.00;1.08;;;25.20;92.40;;;;;;4987661;28;20038;-74
2022/02/13 07:10:21;;;;;;;5.55;0.70;;;25.20;92.50;;;;;;4981900;28;20035;-75
2022/02/13 07:12:48;;;;;;;5.85;0.82;;;25.10;92.50;;;;;;4978243;28;20019;-73
2022/02/13 07:15:16;;;;;;;8.65;1.13;;;25.20;92.60;;;;;;4982542;28;20477;-74
2022/02/13 07:17:44;;;;;;;5.75;1.00;;;25.30;92.70;;;;;;4989062;28;20470;-73
2022/02/13 07:20:13;;;;;;;2.40;0.30;;;25.40;92.40;;;;;;4989600;28;20030;-74
2022/02/13 07:22:40;;;;;;;4.85;1.02;;;25.50;92.30;;;;;;4987281;28;20023;-73
2022/02/13 07:25:08;;;;;;;2.85;0.80;;;25.50;92.20;;;;;;4980785;28;20039;-75
2022/02/13 07:27:37;;;;;;;3.15;0.45;;;25.40;92.20;;;;;;4979921;28;20033;-75
2022/02/13 07:30:06;;;;;;;4.43;0.55;;;25.10;92.30;;;;;;4988849;28;20461;-75
2022/02/13 07:32:34;;;;;;;3.75;0.60;;;25.00;92.60;;;;;;4990544;28;20019;-74
2022/02/13 07:35:01;;;;;;;6.72;1.00;;;25.10;92.20;;;;;;4988935;28;20113;-74
2022/02/13 07:37:28;;;;;;;6.00;0.70;;;25.00;92.40;;;;;;4988245;28;20027;-74
2022/02/13 07:39:56;;;;;;;5.50;0.75;;;24.90;92.40;;;;;;4985506;28;20023;-75
2022/02/13 07:42:23;;;;;;;3.97;1.48;;;24.80;92.70;;;;;;4972375;28;20070;-74
2022/02/13 07:44:50;;;;;;;2.05;0.50;;;24.70;92.90;;;;;;4977793;28;20157;-76
2022/02/13 07:47:18;;;;;;;2.28;0.60;;;24.70;93.20;;;;;;4984569;28;20043;-74
2022/02/13 07:49:45;;;;;;;6.75;0.77;;;24.60;92.70;;;;;;4987323;28;20031;-75
2022/02/13 07:52:13;;;;;;;7.15;0.90;;;24.60;93.00;;;;;;4974037;28;20184;-76
2022/02/13 07:54:40;;;;;;;4.90;0.70;;;24.40;93.00;;;;;;4989190;28;20046;-78
2022/02/13 07:57:08;;;;;;;4.07;0.80;;;24.30;93.50;;;;;;4987642;28;20030;-75
2022/02/13 07:59:38;;;;;;;4.18;0.88;;;24.20;93.70;;;;;;4975476;28;20034;-75
2022/02/13 08:02:06;;;;;;;3.75;0.95;;;24.10;93.70;;;;;;4989303;28;20026;-75
2022/02/13 08:04:36;;;;;;;4.30;0.73;;;24.00;94.00;;;;;;4984582;28;20124;-76
2022/02/13 08:07:04;;;;;;;3.53;0.60;;;24.00;94.00;;;;;;4988197;28;20065;-76
2022/02/13 08:09:31;;;;;;;4.05;0.60;;;24.00;94.10;;;;;;4979932;28;20035;-75
2022/02/13 08:11:58;;;;;;;3.75;0.52;;;24.00;94.10;;;;;;4974064;28;20042;-75
2022/02/13 08:14:25;;;;;;;7.10;0.82;;;23.90;94.30;;;;;;4974432;28;20049;-75
2022/02/13 08:16:53;;;;;;;6.75;0.85;;;23.90;94.30;;;;;;4970525;28;20027;-75
2022/02/13 08:19:20;;;;;;;7.97;0.90;;;23.80;94.20;;;;;;4985298;28;20061;-76
2022/02/13 08:21:47;;;;;;;5.28;0.90;;;23.70;94.70;;;;;;4987371;28;20037;-75
2022/02/13 08:24:15;;;;;;;4.00;1.30;;;23.60;94.70;;;;;;4988101;28;20046;-77
2022/02/13 08:26:42;;;;;;;2.58;1.17;;;23.50;94.90;;;;;;4984894;28;20502;-76
2022/02/13 08:29:09;;;;;;;2.78;0.65;;;23.50;94.90;;;;;;4956612;28;20126;-75
2022/02/13 08:31:37;;;;;;;2.38;1.08;;;23.50;95.00;;;;;;4989378;28;20114;-76
2022/02/13 08:34:04;;;;;;;6.63;0.90;;;23.40;94.90;;;;;;4986630;28;20038;-73
2022/02/13 08:36:31;;;;;;;4.60;0.75;;;23.40;95.00;;;;;;4973822;28;20023;-75
2022/02/13 08:38:59;;;;;;;2.40;0.55;;;23.30;95.10;;;;;;4978002;28;20050;-76
2022/02/13 08:41:26;;;;;;;3.63;0.45;;;23.30;95.30;;;;;;4983706;28;20022;-73
2022/02/13 08:43:53;;;;;;;3.80;0.80;;;23.30;95.20;;;;;;4985271;28;20042;-74
2022/02/13 08:46:23;;;;;;;5.00;0.80;;;23.20;95.40;;;;;;4989566;28;20029;-74
2022/02/13 08:48:51;;;;;;;3.40;0.43;;;23.00;95.60;;;;;;4973537;28;20030;-72
2022/02/13 08:51:18;;;;;;;6.25;0.93;;;23.00;95.90;;;;;;4970854;28;20030;-72
2022/02/13 08:53:46;;;;;;;7.25;1.52;;;22.90;95.90;;;;;;4970443;28;20019;-74
2022/02/13 08:56:13;;;;;;;3.92;0.65;;;22.80;96.00;;;;;;4987787;28;20035;-73
2022/02/13 08:58:40;;;;;;;7.40;1.08;;;22.80;96.10;;;;;;4985901;28;20026;-74
2022/02/13 09:01:08;;;;;;;3.30;0.88;;;22.70;96.30;;;;;;4988718;28;20084;-73
2022/02/13 09:03:35;;;;;;;4.78;1.23;;;22.70;96.20;;;;;;4977938;28;20121;-73
2022/02/13 09:06:02;;;;;;;4.53;1.10;;;22.60;96.30;;;;;;4988204;28;20406;-75
2022/02/13 09:08:30;;;;;;;8.48;1.73;;;22.60;96.50;;;;;;4976880;28;20032;-72
2022/02/13 09:10:57;;;;;;;12.23;1.10;;;22.50;96.40;;;;;;4977838;28;20026;-74
2022/02/13 09:13:24;;;;;;;4.28;1.23;;;22.40;96.50;;;;;;4980609;28;20077;-77
2022/02/13 09:15:52;;;;;;;10.80;1.13;;;22.50;96.50;;;;;;4973348;28;20031;-76
2022/02/13 09:18:19;;;;;;;5.25;1.08;;;22.50;96.50;;;;;;4974556;28;20026;-74
2022/02/13 09:20:46;;;;;;;4.20;1.15;;;22.40;96.20;;;;;;4981077;28;20034;-77
2022/02/13 09:23:17;;;;;;;4.35;0.90;;;22.40;96.70;;;;;;4974269;28;20097;-77
2022/02/13 09:25:45;;;;;;;3.88;0.63;;;22.50;96.40;;;;;;4986839;28;20516;-76
2022/02/13 09:28:14;;;;;;;2.70;0.60;;;22.40;96.50;;;;;;4979542;28;20534;-77
2022/02/13 09:30:46;;;;;;;2.15;0.47;;;22.40;96.40;;;;;;4983909;28;20078;-76
2022/02/13 09:33:17;;;;;;;7.95;1.17;;;22.40;96.40;;;;;;4977606;28;20137;-75
2022/02/13 09:35:45;;;;;;;7.63;1.40;;;22.30;96.50;;;;;;4974604;28;20090;-74
2022/02/13 09:38:15;;;;;;;11.13;1.42;;;22.20;96.70;;;;;;4979061;28;20373;-77
2022/02/13 09:40:51;;;;;;;5.60;0.93;;;22.30;96.60;;;;;;4977174;28;20046;-76
2022/02/13 09:43:22;;;;;;;1.98;0.55;;;22.20;97.00;;;;;;4970868;28;20422;-75
2022/02/13 09:45:52;;;;;;;7.45;1.05;;;22.30;96.80;;;;;;4968939;28;20472;-76
2022/02/13 09:48:21;;;;;;;3.30;0.50;;;22.30;96.60;;;;;;4979666;28;20035;-76
2022/02/13 09:50:50;;;;;;;5.07;0.60;;;22.20;96.80;;;;;;4985049;28;20041;-76
2022/02/13 09:53:19;;;;;;;2.83;1.15;;;22.20;97.10;;;;;;4986817;28;20030;-75
2022/02/13 09:55:47;;;;;;;2.72;0.60;;;22.10;97.00;;;;;;4975661;28;20055;-77
2022/02/13 09:58:14;;;;;;;4.45;0.60;;;22.00;97.10;;;;;;4978850;28;20034;-76
2022/02/13 10:01:04;;;;;;;6.47;1.52;;;22.00;97.30;;;;;;4988883;28;20023;-76
2022/02/13 10:03:40;;;;;;;6.18;1.52;;;21.90;97.40;;;;;;4986154;28;20033;-75
2022/02/13 10:06:14;;;;;;;5.70;1.08;;;21.90;97.40;;;;;;4987468;28;20428;-76
2022/02/13 10:08:52;;;;;;;4.20;0.70;;;21.80;97.30;;;;;;4988649;28;20093;-75
2022/02/13 10:11:24;;;;;;;3.97;0.70;;;21.70;97.70;;;;;;4993202;28;20345;-75
2022/02/13 10:14:05;;;;;;;3.83;1.50;;;21.60;97.70;;;;;;4989316;28;20030;-76
2022/02/13 10:16:34;;;;;;;7.53;1.20;;;21.50;98.00;;;;;;4973135;28;20027;-75
2022/02/13 10:19:02;;;;;;;4.55;1.42;;;21.30;98.40;;;;;;4986213;28;20026;-79
2022/02/13 10:21:50;;;;;;;6.38;0.93;;;21.30;98.60;;;;;;4984468;28;20035;-73
2022/02/13 10:24:24;;;;;;;5.80;0.77;;;21.30;98.60;;;;;;4983067;28;20034;-73
2022/02/13 10:26:57;;;;;;;2.40;0.50;;;21.20;98.70;;;;;;4977353;28;20446;-75
2022/02/13 10:29:33;;;;;;;3.83;0.60;;;21.10;98.90;;;;;;4977484;28;20054;-72
2022/02/13 10:32:21;;;;;;;4.82;0.73;;;21.00;99.30;;;;;;4985349;28;20031;-72
2022/02/13 10:35:15;;;;;;;2.47;0.75;;;20.90;99.40;;;;;;4989440;28;20080;-74
2022/02/13 10:37:48;;;;;;;2.28;1.15;;;20.80;99.60;;;;;;4989152;28;20118;-73
2022/02/13 10:40:22;;;;;;;11.55;0.90;;;20.80;99.80;;;;;;4990002;28;20037;-74
2022/02/13 10:43:00;;;;;;;3.65;1.08;;;20.70;99.90;;;;;;4979669;28;20033;-72
2022/02/13 10:45:29;;;;;;;4.88;1.17;;;20.70;99.90;;;;;;4990159;28;20031;-72
2022/02/13 10:48:04;;;;;;;6.00;1.10;;;20.60;99.90;;;;;;4981366;28;20119;-73
2022/02/13 10:50:35;;;;;;;6.22;1.92;;;20.60;99.90;;;;;;4980529;28;20382;-71
2022/02/13 10:53:05;;;;;;;2.40;0.70;;;20.50;99.90;;;;;;4971129;28;20230;-73
2022/02/13 10:55:34;;;;;;;5.43;0.82;;;20.50;99.90;;;;;;4989650;28;20054;-73
2022/02/13 10:58:03;;;;;;;4.80;1.02;;;20.40;99.90;;;;;;4983315;28;20037;-72
2022/02/13 11:00:31;;;;;;;3.55;1.02;;;20.40;99.90;;;;;;4981073;28;20034;-70
2022/02/13 11:03:04;;;;;;;7.82;1.38;;;20.40;99.90;;;;;;4989003;28;20048;-73
2022/02/13 11:05:32;;;;;;;5.75;0.95;;;20.40;99.90;;;;;;4975593;28;20575;-72
2022/02/13 11:08:17;;;;;;;4.10;1.20;;;20.30;99.90;;;;;;4985525;28;20089;-71
2022/02/13 11:10:50;;;;;;;2.25;1.10;;;20.30;99.90;;;;;;4977605;28;20026;-71
2022/02/13 11:13:23;;;;;;;6.72;1.02;;;20.30;99.90;;;;;;4991417;28;20037;-72
2022/02/13 11:15:51;;;;;;;3.42;1.40;;;20.20;99.90;;;;;;4978233;28;20409;-72
2022/02/13 11:18:27;;;;;;;5.72;1.95;;;20.10;99.90;;;;;;4973053;28;20130;-72
2022/02/13 11:20:55;;;;;;;7.35;2.45;;;20.10;99.90;;;;;;4983270;28;20029;-72
2022/02/13 11:23:30;;;;;;;3.95;1.45;;;20.00;99.90;;;;;;4979527;28;20092;-74
2022/02/13 11:26:01;;;;;;;5.65;1.67;;;19.90;99.90;;;;;;4979324;28;20034;-73
2022/02/13 11:28:54;;;;;;;6.18;2.60;;;19.90;99.90;;;;;;4982854;28;20419;-71
2022/02/13 11:31:42;;;;;;;3.85;1.52;;;19.80;99.90;;;;;;4971326;28;20507;-73
2022/02/13 11:34:14;;;;;;;6.97;2.40;;;19.70;99.90;;;;;;4978582;28;20045;-72
2022/02/13 11:36:49;;;;;;;5.00;2.00;;;19.60;99.90;;;;;;4985667;28;20079;-73
2022/02/13 11:39:31;;;;;;;5.77;1.60;;;19.60;99.90;;;;;;4981218;28;20496;-74
2022/02/13 11:42:20;;;;;;;4.40;1.88;;;19.50;99.90;;;;;;4971891;28;20033;-73
2022/02/13 11:44:57;;;;;;;5.40;2.08;;;19.50;99.90;;;;;;4984335;28;20489;-71
2022/02/13 11:47:43;;;;;;;7.88;2.70;;;19.40;99.90;;;;;;4974063;28;20125;-71
2022/02/13 11:50:11;;;;;;;5.72;1.42;;;19.40;99.90;;;;;;4973783;28;20077;-73
2022/02/13 11:52:54;;;;;;;9.13;1.45;;;19.30;99.90;;;;;;4978079;28;20392;-71
2022/02/13 11:55:26;;;;;;;7.22;1.83;;;19.30;99.90;;;;;;4987274;28;20035;-72
2022/02/13 11:58:01;;;;;;;2.90;0.88;;;19.20;99.90;;;;;;4981888;28;20077;-74
2022/02/13 12:00:50;;;;;;;5.18;0.75;;;19.20;99.90;;;;;;4959480;28;20106;-72
2022/02/13 12:03:32;;;;;;;4.75;0.85;;;19.20;99.90;;;;;;4974807;28;20031;-72
2022/02/13 12:06:05;;;;;;;7.43;0.88;;;19.20;99.90;;;;;;4983033;28;20038;-72
2022/02/13 12:08:34;;;;;;;3.05;0.55;;;19.10;99.90;;;;;;4979309;28;20035;-72
2022/02/13 12:11:11;;;;;;;5.07;0.80;;;19.10;99.90;;;;;;4981690;28;20062;-72
2022/02/13 12:13:38;;;;;;;4.60;0.85;;;19.10;99.90;;;;;;4987398;28;20500;-72
2022/02/13 12:16:08;;;;;;;9.57;1.20;;;19.10;99.90;;;;;;4988601;28;20038;-74
2022/02/13 12:18:36;;;;;;;3.83;1.13;;;19.10;99.90;;;;;;4978948;28;20034;-72
2022/02/13 12:21:06;;;;;;;3.05;0.95;;;19.10;99.90;;;;;;4981682;28;20410;-72
2022/02/13 12:23:34;;;;;;;3.58;0.90;;;19.10;99.90;;;;;;4983217;28;20030;-72
2022/02/13 12:26:02;;;;;;;8.95;1.27;;;19.00;99.90;;;;;;4974493;28;20113;-73
2022/02/13 12:28:39;;;;;;;5.32;1.23;;;19.00;99.90;;;;;;4978863;28;20054;-73
2022/02/13 12:31:08;;;;;;;5.00;1.30;;;18.90;99.90;;;;;;4974561;28;20035;-73
2022/02/13 12:33:50;;;;;;;4.70;1.15;;;18.90;99.90;;;;;;4972412;28;20101;-73
2022/02/13 12:36:23;;;;;;;2.92;1.65;;;18.90;99.90;;;;;;4987263;28;20034;-73
2022/02/13 12:38:54;;;;;;;4.97;1.10;;;18.80;99.90;;;;;;4982019;28;20033;-73
2022/02/13 12:41:25;;;;;;;4.47;1.48;;;18.80;99.90;;;;;;4982224;28;20019;-72
2022/02/13 12:43:53;;;;;;;5.30;1.83;;;18.80;99.90;;;;;;4982354;28;20508;-73
2022/02/13 12:46:21;;;;;;;7.30;2.15;;;18.70;99.90;;;;;;4984337;28;20384;-72
2022/02/13 12:48:48;;;;;;;2.13;0.93;;;18.70;99.90;;;;;;4979915;28;20474;-72
2022/02/13 12:51:28;;;;;;;4.50;1.48;;;18.60;99.90;;;;;;4987402;28;20042;-72
2022/02/13 12:53:59;;;;;;;6.20;1.30;;;18.60;99.90;;;;;;4979938;28;20030;-72
2022/02/13 12:56:26;;;;;;;4.93;0.93;;;18.60;99.90;;;;;;4977147;28;20026;-74
2022/02/13 12:58:54;;;;;;;4.80;0.93;;;18.50;99.90;;;;;;4972192;28;20247;-73
2022/02/13 13:01:32;;;;;;;3.80;0.95;;;18.50;99.90;;;;;;4981821;28;20034;-73
2022/02/13 13:04:00;;;;;;;7.35;1.98;;;18.50;99.90;;;;;;4974511;28;20118;-73
2022/02/13 13:06:29;;;;;;;3.03;0.80;;;18.40;99.90;;;;;;4981391;28;20568;-74